createdAt,value
2022-08-17T00:04:02.097Z,15.90
2022-08-17T00:08:10.020Z,12.80
2022-08-17T00:12:43.787Z,13.50
2022-08-17T00:16:56.156Z,17.20
2022-08-17T00:21:10.579Z,16.00
2022-08-17T00:25:21.230Z,15.70
2022-08-17T00:29:29.206Z,14.40
2022-08-17T00:33:37.790Z,14.60
2022-08-17T00:37:45.318Z,14.20
2022-08-17T00:41:53.492Z,12.70
2022-08-17T00:46:04.021Z,14.80
2022-08-17T00:50:16.130Z,14.80
2022-08-17T00:54:27.152Z,13.60
2022-08-17T00:58:36.790Z,17.20
2022-08-17T01:02:47.605Z,15.00
2022-08-17T01:06:56.500Z,16.60
2022-08-17T01:11:05.816Z,14.90
2022-08-17T01:15:14.200Z,16.70
2022-08-17T01:19:25.434Z,15.50
2022-08-17T01:23:33.526Z,15.80
2022-08-17T01:27:41.979Z,16.00
2022-08-17T01:31:54.358Z,14.70
2022-08-17T01:36:03.824Z,16.00
2022-08-17T01:40:17.593Z,16.50
2022-08-17T01:44:26.891Z,14.90
2022-08-17T01:48:36.637Z,14.40
2022-08-17T01:52:44.918Z,17.90
2022-08-17T01:56:53.512Z,17.90
2022-08-17T02:01:01.761Z,15.70
2022-08-17T02:05:11.265Z,18.10
2022-08-17T02:09:23.362Z,16.50
2022-08-17T02:13:33.918Z,16.70
2022-08-17T02:17:41.904Z,18.20
2022-08-17T02:21:52.232Z,16.40
2022-08-17T02:26:01.410Z,17.90
2022-08-17T02:31:01.382Z,15.70
2022-08-17T02:35:03.604Z,17.90
2022-08-17T02:39:13.106Z,16.10
2022-08-17T02:43:21.194Z,15.60
2022-08-17T02:47:29.382Z,16.70
2022-08-17T02:51:36.886Z,15.10
2022-08-17T02:55:45.528Z,15.20
2022-08-17T02:59:53.220Z,15.50
2022-08-17T03:04:00.986Z,14.60
2022-08-17T03:08:13.234Z,16.60
2022-08-17T03:12:21.239Z,17.00
2022-08-17T03:16:31.616Z,14.40
2022-08-17T03:20:39.553Z,18.20
2022-08-17T03:24:47.383Z,16.10
2022-08-17T03:28:55.899Z,16.30
2022-08-17T03:33:06.869Z,15.80
2022-08-17T03:37:14.662Z,16.00
2022-08-17T03:41:22.602Z,17.30
2022-08-17T03:45:48.808Z,17.40
2022-08-17T03:50:18.234Z,15.80
2022-08-17T03:54:43.554Z,14.80
2022-08-17T03:58:51.788Z,16.20
2022-08-17T04:03:00.483Z,15.70
2022-08-17T04:07:09.270Z,17.90
2022-08-17T04:11:16.675Z,18.20
2022-08-17T04:15:24.993Z,17.50
2022-08-17T04:19:32.897Z,17.00
2022-08-17T04:23:40.787Z,17.50
2022-08-17T04:27:49.354Z,20.80
2022-08-17T04:31:58.498Z,16.10
2022-08-17T04:36:08.976Z,16.50
2022-08-17T04:40:37.851Z,20.10
2022-08-17T04:44:46.269Z,21.50
2022-08-17T04:48:56.832Z,20.60
2022-08-17T04:53:05.479Z,23.40
2022-08-17T04:57:12.969Z,17.90
2022-08-17T05:01:23.938Z,18.20
2022-08-17T05:05:33.695Z,16.60
2022-08-17T05:09:41.246Z,16.30
2022-08-17T05:13:50.434Z,18.80
2022-08-17T05:17:58.592Z,15.00
2022-08-17T05:22:09.190Z,15.00
2022-08-17T05:26:20.477Z,15.20
2022-08-17T05:30:35.196Z,16.40
2022-08-17T05:34:43.027Z,15.50
2022-08-17T05:38:50.947Z,15.70
2022-08-17T05:43:10.083Z,13.60
2022-08-17T05:47:18.088Z,16.60
2022-08-17T05:51:43.560Z,14.30
2022-08-17T05:55:55.323Z,13.20
2022-08-17T06:00:10.031Z,14.40
2022-08-17T06:04:23.414Z,15.70
2022-08-17T06:08:35.979Z,14.80
2022-08-17T06:12:55.650Z,13.00
2022-08-17T06:17:06.476Z,13.40
2022-08-17T06:21:19.026Z,15.50
2022-08-17T06:25:35.714Z,13.50
2022-08-17T06:29:46.625Z,11.80
2022-08-17T06:33:54.530Z,16.20
2022-08-17T06:38:36.929Z,17.20
2022-08-17T06:43:06.651Z,11.90
2022-08-17T06:47:28.578Z,16.10
2022-08-17T06:51:40.799Z,15.30
2022-08-17T06:55:51.908Z,12.70
2022-08-17T07:00:01.400Z,12.00
2022-08-17T07:04:12.562Z,13.50
2022-08-17T07:08:29.677Z,16.80
2022-08-17T07:12:42.758Z,11.50
2022-08-17T07:16:52.970Z,10.40
2022-08-17T07:21:04.491Z,10.60
2022-08-17T07:25:18.659Z,12.00
2022-08-17T07:29:28.953Z,12.50
2022-08-17T07:33:39.411Z,9.50
2022-08-17T07:37:54.559Z,11.60
2022-08-17T07:42:07.798Z,10.70
2022-08-17T07:46:39.100Z,12.00
2022-08-17T07:50:49.597Z,11.90
2022-08-17T07:54:59.414Z,11.40
2022-08-17T07:59:23.214Z,10.20
2022-08-17T08:03:34.466Z,12.80
2022-08-17T08:07:51.342Z,10.60
2022-08-17T08:12:00.245Z,14.60
2022-08-17T08:16:25.599Z,13.70
2022-08-17T08:20:51.943Z,12.20
2022-08-17T08:25:09.622Z,16.20
2022-08-17T08:29:28.487Z,15.00
2022-08-17T08:33:46.097Z,10.20
2022-08-17T08:38:01.487Z,10.80
2022-08-17T08:42:14.843Z,12.30
2022-08-17T08:46:29.691Z,10.00
2022-08-17T08:50:46.141Z,9.00
2022-08-17T08:54:58.041Z,9.40
2022-08-17T08:59:14.535Z,9.60
2022-08-17T09:03:51.850Z,12.90
2022-08-17T09:08:15.243Z,9.80
2022-08-17T09:12:29.972Z,10.40
2022-08-17T09:16:42.571Z,12.60
2022-08-17T09:20:53.916Z,10.10
2022-08-17T09:25:07.106Z,13.00
2022-08-17T09:29:18.521Z,13.00
2022-08-17T09:33:28.500Z,9.50
2022-08-17T09:37:41.686Z,9.80
2022-08-17T09:41:53.771Z,9.30
2022-08-17T09:46:04.490Z,8.90
2022-08-17T09:50:17.030Z,10.60
2022-08-17T09:54:44.500Z,8.70
2022-08-17T09:59:08.950Z,9.70
2022-08-17T10:03:34.966Z,9.40
2022-08-17T10:07:46.944Z,9.50
2022-08-17T10:12:17.342Z,10.80
2022-08-17T10:16:35.779Z,9.70
2022-08-17T10:20:51.375Z,9.60
2022-08-17T10:25:23.739Z,9.40
2022-08-17T10:29:47.494Z,8.00
2022-08-17T10:34:07.113Z,8.90
2022-08-17T10:38:41.636Z,8.90
2022-08-17T10:42:59.334Z,9.80
2022-08-17T10:47:11.559Z,11.30
2022-08-17T10:51:39.405Z,9.20
2022-08-17T10:56:24.448Z,9.30
2022-08-17T11:01:13.011Z,9.30
2022-08-17T11:05:38.953Z,8.50
2022-08-17T11:10:19.021Z,9.40
2022-08-17T11:14:41.445Z,10.60
2022-08-17T11:19:15.829Z,10.40
2022-08-17T11:23:32.620Z,10.40
2022-08-17T11:27:40.663Z,9.20
2022-08-17T11:32:02.593Z,9.70
2022-08-17T11:36:18.368Z,9.90
2022-08-17T11:40:41.252Z,8.80
2022-08-17T11:44:54.904Z,10.00
2022-08-17T11:49:26.748Z,9.70
2022-08-17T11:58:45.110Z,8.30
2022-08-17T12:03:23.719Z,10.10
2022-08-17T12:07:33.415Z,9.20
2022-08-17T12:12:10.950Z,9.40
2022-08-17T12:16:19.368Z,9.60
2022-08-17T12:20:30.172Z,9.60
2022-08-17T12:24:47.372Z,9.10
2022-08-17T12:28:58.522Z,9.70
2022-08-17T12:33:25.000Z,10.80
2022-08-17T12:37:36.495Z,9.80
2022-08-17T12:41:47.144Z,9.80
2022-08-17T12:46:01.214Z,9.80
2022-08-17T12:50:29.638Z,10.40
2022-08-17T12:54:43.198Z,8.60
2022-08-17T12:58:53.800Z,9.80
2022-08-17T13:03:06.266Z,12.00
2022-08-17T13:07:14.771Z,8.70
2022-08-17T13:11:25.506Z,11.50
2022-08-17T13:15:37.154Z,9.30
2022-08-17T13:19:51.273Z,10.20
2022-08-17T13:24:02.176Z,9.30
2022-08-17T13:28:35.446Z,9.00
2022-08-17T13:32:47.426Z,8.70
2022-08-17T13:37:35.335Z,9.50
2022-08-17T13:41:43.385Z,9.00
2022-08-17T13:45:53.302Z,9.70
2022-08-17T13:50:01.166Z,10.80
2022-08-17T13:54:21.151Z,9.40
2022-08-17T13:58:30.562Z,9.90
2022-08-17T14:02:38.988Z,9.30
2022-08-17T14:06:53.990Z,11.00
2022-08-17T14:11:02.407Z,12.20
2022-08-17T14:15:12.282Z,8.90
2022-08-17T14:19:22.053Z,9.10
2022-08-17T14:23:33.151Z,8.30
2022-08-17T14:27:51.970Z,9.30
2022-08-17T14:32:06.707Z,8.20
2022-08-17T14:36:15.968Z,10.50
2022-08-17T14:40:25.801Z,10.00
2022-08-17T14:44:33.830Z,9.90
2022-08-17T14:48:41.813Z,8.20
2022-08-17T14:52:49.977Z,9.50
2022-08-17T14:57:22.247Z,8.20
2022-08-17T15:01:26.420Z,10.80
2022-08-17T15:05:37.116Z,9.00
2022-08-17T15:09:46.154Z,9.60
2022-08-17T15:13:57.218Z,14.30
2022-08-17T15:18:05.153Z,10.90
2022-08-17T15:22:25.238Z,12.30
2022-08-17T15:26:33.368Z,8.40
2022-08-17T15:30:43.653Z,9.10
2022-08-17T15:34:51.539Z,8.80
2022-08-17T15:39:00.189Z,9.80
2022-08-17T15:43:11.545Z,9.60
2022-08-17T15:47:20.602Z,9.60
2022-08-17T15:51:31.014Z,8.70
2022-08-17T15:55:39.749Z,11.90
2022-08-17T15:59:47.407Z,8.20
2022-08-17T16:04:06.563Z,10.10
2022-08-17T16:08:20.717Z,10.10
2022-08-17T16:12:29.376Z,9.50
2022-08-17T16:16:37.088Z,10.70
2022-08-17T16:20:45.184Z,9.90
2022-08-17T16:24:57.377Z,10.10
2022-08-17T16:29:07.680Z,8.40
2022-08-17T16:33:17.201Z,10.70
2022-08-17T16:37:25.454Z,10.00
2022-08-17T16:41:46.061Z,9.50
2022-08-17T16:45:55.142Z,9.10
2022-08-17T16:50:04.855Z,11.30
2022-08-17T16:54:17.575Z,9.70
2022-08-17T16:58:25.571Z,9.30
2022-08-17T17:02:35.076Z,9.10
2022-08-17T17:06:48.407Z,9.90
2022-08-17T17:10:58.275Z,9.70
2022-08-17T17:15:10.536Z,11.50
2022-08-17T17:19:34.289Z,9.90
2022-08-17T17:23:53.984Z,11.60
2022-08-17T17:28:07.232Z,11.10
2022-08-17T17:32:22.289Z,11.00
2022-08-17T17:36:34.426Z,12.10
2022-08-17T17:40:44.370Z,12.70
2022-08-17T17:44:55.059Z,9.60
2022-08-17T17:49:04.095Z,10.20
2022-08-17T17:53:17.076Z,10.70
2022-08-17T17:57:39.291Z,10.30
2022-08-17T18:01:55.140Z,9.60
2022-08-17T18:06:21.701Z,8.70
2022-08-17T18:10:35.287Z,11.30
2022-08-17T18:14:58.301Z,8.60
2022-08-17T18:19:06.880Z,11.00
2022-08-17T18:23:15.721Z,11.20
2022-08-17T18:27:27.766Z,14.20
2022-08-17T18:31:35.498Z,11.10
2022-08-17T18:35:59.335Z,10.50
2022-08-17T18:40:34.627Z,9.70
2022-08-17T18:44:49.597Z,10.30
2022-08-17T18:49:01.354Z,10.00
2022-08-17T18:53:26.624Z,12.20
2022-08-17T18:57:39.780Z,12.20
2022-08-17T19:02:15.984Z,10.10
2022-08-17T19:06:32.198Z,11.60
2022-08-17T19:10:46.238Z,10.30
2022-08-17T19:14:57.044Z,11.40
2022-08-17T19:19:09.519Z,13.00
2022-08-17T19:23:20.077Z,12.00
2022-08-17T19:27:41.961Z,11.60
2022-08-17T19:31:56.346Z,12.30
2022-08-17T19:36:10.331Z,17.50
2022-08-17T19:40:51.090Z,12.60
2022-08-17T19:44:59.418Z,11.40
2022-08-17T19:49:11.626Z,12.30
2022-08-17T19:53:36.861Z,11.70
2022-08-17T19:58:03.927Z,12.60
2022-08-17T20:02:32.127Z,14.40
2022-08-17T20:06:43.039Z,15.50
2022-08-17T20:10:55.376Z,13.60
2022-08-17T20:15:09.536Z,13.40
2022-08-17T20:19:24.739Z,14.70
2022-08-17T20:23:46.358Z,15.80
2022-08-17T20:28:05.568Z,15.60
2022-08-17T20:32:27.479Z,14.50
2022-08-17T20:36:37.059Z,13.50
2022-08-17T20:41:15.397Z,11.10
2022-08-17T20:45:52.900Z,15.70
2022-08-17T20:50:03.495Z,13.60
2022-08-17T20:54:44.539Z,15.90
2022-08-17T20:58:52.478Z,12.80
2022-08-17T21:03:51.070Z,13.30
2022-08-17T21:08:02.224Z,15.00
2022-08-17T21:12:11.597Z,14.60
2022-08-17T21:16:34.930Z,14.70
2022-08-17T21:20:50.199Z,14.90
2022-08-17T21:25:03.501Z,13.60
2022-08-17T21:29:31.827Z,13.50
2022-08-17T21:33:42.078Z,16.60
2022-08-17T21:37:50.650Z,17.50
2022-08-17T21:42:00.245Z,14.80
2022-08-17T21:46:11.850Z,17.20
2022-08-17T21:50:22.528Z,15.30
2022-08-17T21:54:37.004Z,13.80
2022-08-17T21:58:48.694Z,14.00
2022-08-17T22:03:01.763Z,13.70
2022-08-17T22:07:14.870Z,13.70
2022-08-17T22:11:22.660Z,16.50
2022-08-17T22:15:30.190Z,13.10
2022-08-17T22:19:38.337Z,15.80
2022-08-17T22:24:05.715Z,14.10
2022-08-17T22:28:14.989Z,13.20
2022-08-17T22:32:45.095Z,13.90
2022-08-17T22:36:53.820Z,14.60
2022-08-17T22:41:37.795Z,15.00
2022-08-17T22:45:54.631Z,13.70
2022-08-17T22:50:04.420Z,11.90
2022-08-17T22:54:37.055Z,14.30
2022-08-17T22:59:09.311Z,14.10
2022-08-17T23:03:20.121Z,15.20
2022-08-17T23:07:28.218Z,15.10
2022-08-17T23:11:49.109Z,15.80
2022-08-17T23:15:58.165Z,15.50
2022-08-17T23:20:08.691Z,16.20
2022-08-17T23:24:19.350Z,17.40
2022-08-17T23:28:28.734Z,17.30
2022-08-17T23:32:53.327Z,15.70
2022-08-17T23:37:04.533Z,15.80
2022-08-17T23:41:15.510Z,17.50
2022-08-17T23:45:24.162Z,19.10
2022-08-17T23:49:31.858Z,13.00
2022-08-17T23:53:42.429Z,14.10
2022-08-17T23:57:50.863Z,16.50
